• Join FlightAware (Why Join?)
  • Login
  • US Flag 
03:03PM EDT


 

Airport Tracker/Info


-or-


 

Live Flight TrackerFlight Track Log ✈ N30VP ✈ 25-Oct-2013 ✈ KAPF - KAFP

Flight Track Log - Related Links

Times and Time Zones

All times are in EDT time to prevent confusion due to time zone crossing. See the N30VP flight status page for this flight to view local times or setup timezone preferences in your user account.

Time Position Orientation Groundspeed Altitude Reporting Facility
EDT Latitude Longitude Course Direction KTS MPH feet Rate Location/Type
08:08AM 26.2275 -81.7756 North 196 226 4,600  Level Miami Center
08:09AM 26.2875 -81.7872 350° North 228 262 8,100 3,600 Climbing Miami Center
08:10AM 26.3647 -81.7881 359° North 264 304 11,900 3,360 Climbing Miami Center
08:11AM 26.4478 -81.8008 352° North 276 318 14,900 2,940 Climbing Miami Center
08:12AM 26.5392 -81.8139 353° North 311 358 17,800 2,940 Climbing Miami Center
08:13AM 26.8008 -81.6614 North  Level Estimated
08:13AM 26.6286 -81.8294 351° North 323 372 20,800  Level Miami Center
08:14AM 26.7128 -81.8656 339° North 323 372 23,300 2,340 Climbing Miami Center
08:15AM 26.7950 -81.9086 335° Northwest 318 366 25,500 2,100 Climbing Miami Center
08:16AM 26.8831 -81.9494 338° Northwest 329 379 27,600 1,740 Climbing Miami Center
08:17AM 26.9875 -81.9494 360° North 348 400 29,000 1,500 Climbing Miami Center
08:18AM 27.0975 -81.9053 20° North 368 423 30,600 1,500 Climbing Miami Center
08:19AM 27.2056 -81.8633 19° North 408 470 32,000 1,260 Climbing Miami Center
08:20AM 27.3178 -81.8192 19° North 419 482 33,200 1,200 Climbing Miami Center
08:21AM 27.4319 -81.7772 18° North 426 490 34,400 960 Climbing Miami Center
08:22AM 27.5375 -81.7372 19° North 437 503 35,200 1,020 Climbing Miami Center
08:23AM 27.6672 -81.7264 North 425 489 36,500 900 Climbing Miami Center
08:24AM 27.7844 -81.7150 North 425 489 37,000 240 Climbing Miami Center
08:25AM 27.8953 -81.7081 North 425 489 37,000  Level Miami Center
08:26AM 28.0147 -81.6944 North 425 489 37,000  Level Miami Center
08:27AM 28.1381 -81.6878 North 430 495 37,000  Level Miami Center
08:28AM 28.2594 -81.6767 North 430 495 37,000  Level Miami Center
08:29AM 28.3933 -81.6681 North 430 495 37,000  Level Miami Center
08:29AM 28.4822 -81.6622 North 535 616 37,000  Level Jacksonville Center
08:30AM 28.5906 -81.6536 North 493 567 37,000  Level Jacksonville Center
08:31AM 28.7178 -81.6425 North 462 532 37,000  Level Jacksonville Center
08:32AM 28.8408 -81.6317 North 450 518 37,000  Level Jacksonville Center
08:33AM 28.9658 -81.6253 North 444 511 37,000  Level Jacksonville Center
08:34AM 29.0889 -81.6142 North 444 511 37,000  Level Jacksonville Center
08:35AM 29.2161 -81.6006 North 444 511 37,000  Level Jacksonville Center
08:36AM 29.3350 -81.5944 North 439 505 37,000  Level Jacksonville Center
08:37AM 29.4603 -81.5831 North 439 505 37,000  Level Jacksonville Center
08:38AM 29.5833 -81.5744 North 439 505 37,000  Level Jacksonville Center
08:39AM 29.7064 -81.5631 North 439 505 37,000  Level Jacksonville Center
08:40AM 29.8272 -81.5519 North 439 505 37,000  Level Jacksonville Center
08:41AM 29.9525 -81.5431 North 439 505 37,000  Level Jacksonville Center
08:42AM 30.0756 -81.5317 North 439 505 37,000  Level Jacksonville Center
08:43AM 30.2006 -81.5203 North 439 505 37,000  Level Jacksonville Center
08:44AM 30.3217 -81.5089 North 439 505 37,000  Level Jacksonville Center
08:45AM 30.4486 -81.4781 12° North 444 511 37,000  Level Jacksonville Center
08:46AM 30.5714 -81.4425 14° North 444 511 37,000  Level Jacksonville Center
08:47AM 30.6964 -81.4067 14° North 450 518 37,000  Level Jacksonville Center
08:48AM 30.8192 -81.3711 14° North 450 518 37,000  Level Jacksonville Center
08:49AM 30.9439 -81.3350 14° North 450 518 37,000  Level Jacksonville Center
08:50AM 31.0667 -81.2992 14° North 450 518 37,000  Level Jacksonville Center
08:51AM 31.1894 -81.2631 14° North 450 518 37,000  Level Jacksonville Center
08:52AM 31.3142 -81.2267 14° North 450 518 37,000  Level Jacksonville Center
08:53AM 31.4472 -81.1831 16° North 450 518 37,000  Level Jacksonville Center
08:54AM 31.5594 -81.1517 13° North 457 526 37,000  Level Jacksonville Center
08:55AM 31.6947 -81.1100 15° North 452 520 37,000  Level Jacksonville Center
08:56AM 31.8172 -81.0736 14° North 452 520 37,000  Level Jacksonville Center
08:57AM 31.9275 -81.0394 15° North 445 512 37,000  Level Jacksonville Center
08:58AM 32.0647 -81.0000 14° North 451 519 37,000  Level Jacksonville Center
08:59AM 32.1769 -80.9683 13° North 451 519 37,000  Level Jacksonville Center
09:00AM 32.3119 -80.9286 14° North 450 518 37,000  Level Jacksonville Center
09:01AM 32.4242 -80.8942 15° North 450 518 37,000  Level Jacksonville Center
09:02AM 32.5489 -80.8569 14° North 450 518 37,000  Level Jacksonville Center
09:03AM 32.6714 -80.8194 14° North 450 518 37,000  Level Jacksonville Center
09:04AM 32.7939 -80.7797 15° North 450 518 37,000  Level Jacksonville Center
09:05AM 32.9186 -80.7422 14° North 450 518 37,000  Level Jacksonville Center
09:06AM 33.0411 -80.7044 14° North 450 518 37,000  Level Jacksonville Center
09:07AM 33.1636 -80.6667 14° North 450 518 37,000  Level Jacksonville Center
09:08AM 33.2861 -80.6314 14° North 450 518 37,000  Level Jacksonville Center
09:09AM 33.4106 -80.5933 14° North 450 518 37,000  Level Jacksonville Center
09:10AM 33.5308 -80.5528 16° North 450 518 37,000  Level Jacksonville Center
09:11AM 33.6511 -80.5147 15° North 450 518 37,000  Level Jacksonville Center
09:12AM 33.7717 -80.4767 15° North 450 518 37,000  Level Jacksonville Center
09:13AM 33.8897 -80.4383 15° North 445 512 37,000  Level Jacksonville Center
09:14AM 34.0078 -80.3950 17° North 445 512 37,000 -120 Level Jacksonville Center
09:15AM 34.1239 -80.3514 17° North 439 505 36,800 -1,800 Descending Jacksonville Center
09:16AM 34.2417 -80.3053 18° North 439 505 33,500 -3,660 Descending Jacksonville Center
09:17AM 34.3556 -80.2617 18° North 434 499 29,500 -4,080 Descending Jacksonville Center
09:18AM 34.4714 -80.2128 19° North 434 499 25,400 -4,080 Descending Jacksonville Center
09:19AM 34.5817 -80.1942 North 425 489 21,400 -4,680 Descending Jacksonville Center
09:20AM 34.6406 -80.2139 345° North 345 397 18,400 -5,040 Descending Atlanta Center
09:20AM 34.6767 -80.2400 329° Northwest 302 348 16,400 -3,300 Descending Atlanta Center
09:21AM 34.7303 -80.2831 327° Northwest 269 310 13,800 -2,880 Descending Atlanta Center